Ransom, Illinois
Current Conditions -  °F | °C
As of 12:35 PM on Thursday 23 Oct 2014 (Local Time) from KPNT Reporting Station
Clear Clear  
Wind Chill: 57°   Ceiling: Unl
Heat Index: 57°   Visibility: 10mi
Dew Point: 43°   Wind: 10mph
Humidity: 59%   Direction: 200°SSW
Pressure: 30.18"   Gusts: NA
Location:  41.16°N, 88.65°W
Report Text: KPNT 231735Z AUTO 20009KT 10SM CLR 14/06 A3018 RMK AO2 T01410061
Loading
Personal Weather Stations






























Interactive Weather Map New forecast layout! Learn more

10-Day Weather Forecast

Advertisements
Track Severe Weather on mobile